KBDL/BDL METAR and TAF weather

Enter ICAO airport designator
Station Type Date Time Source
KBDL METAR 2021/07/30 07:51 UTC NOAA

KBDL 300751Z 29006KT 10SM FEW020 FEW110 19/17 A2967 RMK AO2 SLP047 T01890172 $


Station Type Date Time Source
KBDL Decoded METAR 2021/07/30 07:51 UTC NOAA

BRADLEY INTERNATIONAL AIRPORT , CT, United States (KBDL) 41-56N 072-41W 60M
Jul 30, 2021 - 03:51 AM EDT / 2021.07.30 0751 UTC
Wind: from the WNW (290 degrees) at 7 MPH (6 KT):0
Visibility: 10 mile(s):0
Sky conditions: mostly clear
Temperature: 66.0 F (18.9 C)
Dew Point: 63.0 F (17.2 C)
Relative Humidity: 89%
Pressure (altimeter): 29.67 in. Hg (1004 hPa)
ob: KBDL 300751Z 29006KT 10SM FEW020 FEW110 19/17 A2967 RMK AO2 SLP047 T01890172
cycle: 8

Station Type Date Time Source
KBDL TAF 2021/07/30 06:45 UTC NOAA

TAF KBDL 300543Z 3006/3112 22005KT P6SM SCT025 BKN035
FM301100 30007KT P6SM SCT090
FM301700 31014G23KT P6SM BKN045
FM301900 31015G23KT P6SM BKN120
FM302300 32011G19KT P6SM SCT250
FM310600 30004KT P6SM FEW250

Example: see airport list